createdAt,value
2018-11-06T00:06:45.441Z,15.47
2018-11-06T00:16:48.688Z,15.17
2018-11-06T00:26:51.985Z,15.70
2018-11-06T00:36:55.229Z,14.53
2018-11-06T00:46:58.560Z,13.43
2018-11-06T00:57:01.833Z,13.70
2018-11-06T01:07:05.221Z,14.93
2018-11-06T01:17:08.492Z,13.67
2018-11-06T01:27:11.739Z,13.83
2018-11-06T01:37:14.984Z,13.60
2018-11-06T01:47:18.460Z,13.77
2018-11-06T01:57:21.752Z,17.00
2018-11-06T02:07:25.024Z,16.40
2018-11-06T02:17:28.292Z,15.87
2018-11-06T02:27:31.575Z,16.47
2018-11-06T02:37:34.841Z,15.10
2018-11-06T02:47:38.192Z,15.87
2018-11-06T02:57:41.983Z,14.87
2018-11-06T03:07:45.335Z,15.03
2018-11-06T03:17:48.551Z,15.33
2018-11-06T03:27:51.773Z,15.07
2018-11-06T03:37:54.989Z,15.30
2018-11-06T03:47:58.232Z,16.30
2018-11-06T03:58:01.471Z,15.17
2018-11-06T04:08:04.917Z,14.37
2018-11-06T04:18:08.128Z,13.13
2018-11-06T04:28:11.420Z,13.07
2018-11-06T04:38:14.641Z,13.73
2018-11-06T04:48:17.856Z,13.60
2018-11-06T04:58:21.097Z,13.17
2018-11-06T05:08:24.320Z,12.07
2018-11-06T05:18:27.552Z,13.23
2018-11-06T05:28:30.812Z,12.50
2018-11-06T05:38:34.112Z,13.07
2018-11-06T05:48:37.348Z,13.27
2018-11-06T05:58:40.652Z,13.67
2018-11-06T06:08:43.891Z,13.87
2018-11-06T06:18:47.101Z,13.93
2018-11-06T06:28:50.641Z,14.87
2018-11-06T06:38:54.092Z,13.50
2018-11-06T06:48:57.516Z,13.73
2018-11-06T06:59:00.780Z,13.87
2018-11-06T07:09:05.300Z,13.03
2018-11-06T07:19:08.492Z,13.67
2018-11-06T07:29:11.740Z,13.57
2018-11-06T07:39:14.957Z,14.60
2018-11-06T07:49:18.211Z,15.00
2018-11-06T07:59:21.520Z,13.37
2018-11-06T08:09:24.790Z,14.60
2018-11-06T08:19:28.244Z,15.00
2018-11-06T08:29:31.488Z,16.57
2018-11-06T08:39:34.700Z,18.50
2018-11-06T08:49:37.929Z,16.60
2018-11-06T08:59:41.756Z,18.30
2018-11-06T09:09:44.983Z,22.23
2018-11-06T09:19:48.360Z,22.03
2018-11-06T09:29:51.553Z,20.27
2018-11-06T09:39:54.783Z,18.70
2018-11-06T09:49:58.009Z,19.50
2018-11-06T10:00:01.290Z,16.97
2018-11-06T10:10:04.997Z,19.13
2018-11-06T10:20:08.973Z,18.33
2018-11-06T10:30:14.180Z,24.30
2018-11-06T10:40:18.909Z,16.90
2018-11-06T10:50:22.164Z,17.97
2018-11-06T11:00:30.709Z,16.10
2018-11-06T11:10:33.972Z,16.60
2018-11-06T11:20:37.232Z,16.97
2018-11-06T11:30:40.464Z,16.43
2018-11-06T11:40:43.680Z,18.27
2018-11-06T11:50:47.109Z,16.97
2018-11-06T12:00:50.345Z,16.23
2018-11-06T12:10:53.607Z,12.20
2018-11-06T12:20:56.832Z,10.87
2018-11-06T12:31:00.070Z,10.50
2018-11-06T12:41:03.426Z,10.33
2018-11-06T12:51:06.705Z,11.67
2018-11-06T13:01:09.968Z,9.70
2018-11-06T13:11:13.211Z,14.87
2018-11-06T13:21:17.367Z,10.83
2018-11-06T13:31:20.601Z,10.53
2018-11-06T13:41:23.963Z,10.80
2018-11-06T13:51:27.213Z,7.43
2018-11-06T14:01:30.440Z,11.10
2018-11-06T14:11:33.684Z,9.63
2018-11-06T14:21:36.917Z,9.73
2018-11-06T14:31:40.137Z,11.03
2018-11-06T14:41:43.359Z,11.23
2018-11-06T14:51:46.600Z,12.80
2018-11-06T15:01:49.878Z,11.80
2018-11-06T15:11:54.581Z,11.67
2018-11-06T15:21:58.281Z,11.20
2018-11-06T15:32:01.532Z,12.07
2018-11-06T15:42:04.862Z,13.13
2018-11-06T15:52:08.045Z,14.30
2018-11-06T16:02:11.309Z,16.53
2018-11-06T16:12:14.530Z,15.30
2018-11-06T16:22:17.776Z,15.50
2018-11-06T16:32:21.078Z,16.40
2018-11-06T16:42:24.985Z,15.57
2018-11-06T16:52:28.418Z,13.50
2018-11-06T17:02:31.704Z,14.30
2018-11-06T17:12:34.952Z,15.30
2018-11-06T17:22:38.225Z,14.67
2018-11-06T17:32:42.014Z,16.87
2018-11-06T17:42:45.393Z,21.30
2018-11-06T17:52:48.665Z,20.17
2018-11-06T18:02:51.887Z,17.10
2018-11-06T18:12:55.260Z,16.73
2018-11-06T18:22:58.495Z,15.80
2018-11-06T18:33:01.812Z,16.77
2018-11-06T18:43:05.162Z,16.80
2018-11-06T18:53:08.548Z,17.43
2018-11-06T19:03:11.784Z,17.17
2018-11-06T19:13:15.009Z,16.20
2018-11-06T19:23:18.228Z,17.13
2018-11-06T19:33:21.493Z,16.70
2018-11-06T19:43:25.620Z,17.93
2018-11-06T19:53:28.903Z,16.93
2018-11-06T20:03:32.163Z,16.90
2018-11-06T20:13:35.361Z,16.57
2018-11-06T20:23:38.621Z,16.50
2018-11-06T20:33:41.968Z,16.30
2018-11-06T20:43:45.071Z,16.53
2018-11-06T20:53:48.362Z,17.97
2018-11-06T21:03:51.613Z,17.87
2018-11-06T21:13:54.845Z,17.33
2018-11-06T21:23:58.123Z,16.77
2018-11-06T21:34:01.445Z,16.80
2018-11-06T21:44:04.633Z,16.90
2018-11-06T21:54:07.982Z,17.30
2018-11-06T22:04:11.237Z,17.47
2018-11-06T22:14:14.485Z,17.77
2018-11-06T22:24:17.831Z,16.07
2018-11-06T22:34:21.120Z,16.07
2018-11-06T22:44:24.380Z,17.93
2018-11-06T22:54:27.609Z,16.23
2018-11-06T23:04:30.884Z,16.60
2018-11-06T23:14:34.166Z,16.53
2018-11-06T23:24:37.366Z,15.60
2018-11-06T23:34:41.463Z,16.03
2018-11-06T23:44:44.701Z,16.30
2018-11-06T23:54:47.936Z,14.93
